METAR Data
IDs: Format: Raw Decoded Include TAF

Data at: 0138 UTC 24 Sep 2018

KINL 240055Z AUTO 12012G22KT 10SM OVC013 06/04 A3009 RMK AO2 PK WND 11026/0015 SLP203 T00610044
KINL 240027Z AUTO 12014G24KT 10SM SCT009 OVC013 06/04 A3010 RMK AO2 PK WND 11026/0015 T00610044
KINL 232355Z AUTO 11009KT 10SM OVC009 06/05 A3011 RMK AO2 SLP209 T00610050 10061 20050 56015
KINL 232348Z AUTO 10010G16KT 10SM OVC009 06/05 A3010 RMK AO2 T00610050
KINL 232255Z AUTO 10012KT 10SM OVC011 06/04 A3012 RMK AO2 SLP214 T00610044
KINL 232155Z AUTO 10013G20KT 10SM OVC011 06/05 A3014 RMK AO2 SLP218 T00610050
KINL 232126Z AUTO 08009KT 10SM OVC010 06/05 A3015 RMK AO2 T00610050
KINL 232055Z AUTO 08010KT 10SM OVC009 06/05 A3016 RMK AO2 SLP225 T00610050 56019
KINL 231955Z AUTO 10010G18KT 10SM OVC009 06/05 A3016 RMK AO2 SLP226 T00610050
KINL 231855Z AUTO 09009G20KT 10SM OVC008 06/04 A3018 RMK AO2 SLP233 T00560044
KINL 231755Z AUTO 09009KT 10SM OVC009 05/04 A3021 RMK AO2 SLP245 60000 T00500044 10050 20033 58008
KINL 231705Z AUTO 09013KT 5SM BR OVC009 05/04 A3023 RMK AO2 T00500039
KINL 231655Z AUTO 09012KT 5SM BR OVC010 04/04 A3022 RMK AO2 SLP249 T00440039
KINL 231555Z AUTO 10012G20KT 10SM OVC012 04/03 A3024 RMK AO2 SLP253 T00440033
KINL 231522Z AUTO 10011G21KT 10SM OVC013 04/03 A3024 RMK AO2 T00390028
KINL 231455Z AUTO 10013G22KT 10SM OVC016 04/03 A3024 RMK AO2 SLP253 60000 T00390028 53011
KINL 231437Z AUTO 10016G22KT 10SM OVC015 04/03 A3023 RMK AO2 T00390028
KINL 231355Z AUTO 10014G21KT 10SM BKN012 OVC018 04/03 A3022 RMK AO2 PK WND 09026/1326 SLP246 T00390028
KINL 231344Z AUTO 10012G21KT 10SM BKN011 OVC014 04/03 A3021 RMK AO2 PK WND 09026/1326 CIG 007V012 T00390028
KINL 231306Z AUTO 10013G20KT 10SM OVC009 03/03 A3020 RMK AO2 T00330028
KINL 231255Z AUTO 10014G25KT 10SM OVC010 04/03 A3020 RMK AO2 RAE24 SLP239 P0000 T00390028
KINL 231224Z AUTO 10010KT 6SM BR OVC014 03/03 A3019 RMK AO2 RAE24 P0000 T00330033
KINL 231155Z AUTO 08010KT 6SM -RA BR SCT009 BKN017 OVC022 03/03 A3020 RMK AO2 RAB43 SLP241 P0000 60002 70005 T00330028 10039 20033 53005
KINL 231153Z AUTO 07011KT 7SM -RA SCT009 BKN017 OVC022 03/03 A3020 RMK AO2 RAB43 P0000
KINL 231122Z AUTO 08012G20KT 7SM BKN009 OVC023 03/03 A3019 RMK AO2 T00330028
KINL 231055Z AUTO 08012KT 10SM BKN010 OVC026 03/03 A3019 RMK AO2 SLP236 T00330028
KINL 231008Z AUTO 09011KT 10SM FEW009 OVC014 03/03 A3019 RMK AO2 T00330028
KINL 230955Z AUTO 09011G22KT 10SM OVC013 03/03 A3019 RMK AO2 RAE06 SLP235 P0000 T00330028
KINL 230951Z AUTO 09012G22KT 10SM OVC013 03/03 A3018 RMK AO2 RAE06 P0000
KINL 230931Z AUTO 08011G19KT 10SM SCT009 OVC015 03/03 A3019 RMK AO2 RAE06 P0000 T00330028
KINL 230855Z AUTO 08010KT 4SM -RA BR OVC009 03/03 A3019 RMK AO2 SLP234 P0001 60002 T00330033 51005
KINL 230755Z AUTO 08010G24KT 4SM -RA BR BKN009 OVC014 04/03 A3019 RMK AO2 VIS 2 1/2 RWY 31 SLP232 P0001 T00390033
KINL 230750Z AUTO 08011G24KT 4SM -RA BR OVC009 04/03 A3018 RMK AO2 P0001
KINL 230716Z AUTO 07012KT 4SM -RA BR FEW007 BKN014 OVC035 03/03 A3018 RMK AO2 VIS 2 1/2 RWY 31 P0000 T00330028
KINL 230707Z AUTO 07010G18KT 5SM -RA BR FEW006 SCT012 OVC036 03/03 A3018 RMK AO2 P0000 T00330033
KINL 230655Z AUTO 08010KT 5SM -RA BR SCT006 BKN014 OVC036 03/03 A3017 RMK AO2 VIS 2 1/2 RWY 31 RAB15 SLP227 P0000 T00330033
KINL 230653Z AUTO 08012G18KT 5SM -RA BR FEW006 BKN012 OVC036 03/03 A3017 RMK AO2 VIS 2 1/2 RWY 31 RAB15 P0000
KINL 230609Z AUTO 08012G19KT 6SM BR OVC010 03/03 A3019 RMK AO2 VIS 2 1/2 RWY 31 CIG 006V012 T00330028
KINL 230555Z AUTO 09013G20KT 6SM BR BKN008 OVC037 03/03 A3018 RMK AO2 RAB15E39 CIG 005V012 SLP231 P0001 60003 T00330028 10050 20033 401440011 50001
KINL 230531Z AUTO 09011G18KT 3SM -RA BR BKN008 BKN014 OVC038 03/03 A3019 RMK AO2 VIS 2 RWY 31 RAB15 P0000 T00330033
KINL 230529Z AUTO 09011KT 3SM -RA BR SCT010 BKN014 OVC038 03/03 A3019 RMK AO2 VIS 2 RWY 31 RAB15 P0000 T00330033
KINL 230520Z AUTO 08012KT 3SM -RA BR SCT010 BKN031 OVC038 03/03 A3019 RMK AO2 VIS 2 RWY 31 RAB15 P0000 T00330033
KINL 230517Z AUTO 08012KT 4SM -RA BR SCT010 BKN013 OVC037 03/03 A3019 RMK AO2 VIS 2 1/2 RWY 31 RAB15 P0000 T00330028
KINL 230455Z AUTO 07012G19KT 3SM BR BKN009 OVC013 03/03 A3021 RMK AO2 VIS 1 1/2 RWY 31 RAE29 SLP239 P0001 T00330028
KINL 230442Z AUTO 07012G19KT 4SM BR BKN009 OVC012 04/03 A3020 RMK AO2 VIS 1 3/4 RWY 31 RAE29 P0001 T00390033
KINL 230400Z AUTO 07010KT 3SM -RA BR FEW008 OVC013 04/03 A3019 RMK AO2 VIS 1 3/4 RWY 31 P0000 T00390033
KINL 230355Z AUTO 07012G19KT 2 1/2SM -RA BR OVC013 04/03 A3019 RMK AO2 VIS 1 1/2 RWY 31 RAB12E23B45 SLP235 P0001 T00390033
KINL 230352Z AUTO 07012G19KT 2 1/2SM -RA BR FEW008 OVC014 04/03 A3019 RMK AO2 VIS 1 1/2 RWY 31 RAB12E23B45 P0001
KINL 230327Z AUTO 08010KT 3SM BR OVC014 04/04 A3019 RMK AO2 VIS 2 RWY 31 RAB12E23 P0001 T00440039
KINL 230316Z AUTO 08009KT 3SM -RA BR FEW009 OVC015 04/04 A3018 RMK AO2 VIS 2 RWY 31 RAB12 P0000 T00440039
KINL 230302Z AUTO 07010KT 4SM BR SCT009 BKN013 OVC018 04/04 A3018 RMK AO2 VIS 2 RWY 31 T00440039
KINL 230255Z AUTO 07011KT 4SM BR SCT008 BKN016 OVC030 04/04 A3018 RMK AO2 VIS 2 RWY 31 SLP232 60000 T00440039 53003
KINL 230251Z AUTO 07011G17KT 4SM BR SCT010 BKN017 OVC030 04/04 A3018 RMK AO2 VIS 2 1/2 RWY 31
KINL 230231Z AUTO 07010G16KT 3SM BR SCT015 OVC034 04/04 A3018 RMK AO2 T00440039
KINL 230212Z AUTO 07008KT 4SM BR FEW007 OVC015 04/04 A3017 RMK AO2 T00440039
KINL 230155Z AUTO 07011KT 10SM BKN010 OVC015 04/03 A3017 RMK AO2 RAB02E26 CIG 006V013 SLP230 P0000 T00440033
KINL 230129Z AUTO 07009G15KT 6SM BR OVC008 05/04 A3017 RMK AO2 RAB02E26 CIG 007V012 P0000 T00500044
KINL 230055Z AUTO 07008KT 10SM OVC011 05/04 A3015 RMK AO2 RAE12 SLP222 P0000 T00500039
KINL 222355Z AUTO 06010G18KT 10SM -RA OVC011 05/04 A3014 RMK AO2 RAE04B45 SLP218 P0000 60000 T00500044 10144 20050 50013
KINL 222351Z AUTO 04011G18KT 10SM -RA OVC011 05/04 A3014 RMK AO2 RAE04B45 P0000
KINL 222343Z AUTO 05010KT 10SM OVC009 05/04 A3015 RMK AO2 RAE04 CIG 008V013 P0000 T00500039
KINL 222331Z AUTO 04013G21KT 10SM OVC010 06/04 A3015 RMK AO2 RAE04 P0000 T00560039
KINL 222255Z AUTO 04011G16KT 10SM -RA OVC009 06/05 A3013 RMK AO2 RAE05B32 CIG 007V012 SLP215 P0000 T00560050
KINL 222155Z AUTO 03008KT 10SM -RA OVC008 07/07 A3010 RMK AO2 RAB11 SLP204 P0000 T00720067
KINL 222145Z AUTO 03009KT 10SM -RA OVC009 07/07 A3009 RMK AO2 RAB11 P0000 T00720067
KINL 222130Z AUTO 03011G17KT 10SM -RA OVC010 08/07 A3009 RMK AO2 RAB11 CIG 008V013 P0000 T00780072
KINL 222122Z AUTO 04013G17KT 10SM -RA BKN008 OVC012 08/07 A3009 RMK AO2 RAB11 P0000 T00830072
KINL 222102Z AUTO 03009KT 10SM BKN010 BKN025 OVC031 09/08 A3009 RMK AO2 T00890078
KINL 222055Z AUTO 02008KT 10SM SCT011 BKN028 OVC032 09/08 A3008 RMK AO2 RAB01E50 SLP200 P0000 60000 T00940083 55004
KINL 221955Z AUTO 02008KT 10SM OVC033 12/08 A3008 RMK AO2 SLP197 T01170078
KINL 221855Z AUTO 24005KT 10SM FEW037 BKN047 OVC100 14/07 A3009 RMK AO2 SLP199 T01390072
KINL 221755Z AUTO 27009KT 10SM FEW035 BKN100 14/07 A3010 RMK AO2 SLP201 T01440067 10144 20044 56018
KINL 221655Z AUTO 26007G18KT 10SM CLR 13/07 A3011 RMK AO2 SLP208 T01330067
KINL 221555Z AUTO 24012G17KT 10SM SCT055 BKN120 13/07 A3013 RMK AO2 SLP213 T01280067
KINL 221455Z AUTO 21007KT 10SM FEW047 SCT090 BKN110 09/06 A3015 RMK AO2 SLP223 T00890061 58001
KINL 221355Z AUTO 21004KT 10SM OVC090 08/06 A3016 RMK AO2 SLP225 T00780056